sensor_id;sensor_type;location;lat;lon;timestamp;temperature;humidity
3996;DHT22;2012;49.794;9.722;2023-07-02T00:00:00;18.30;99.90
3996;DHT22;2012;49.794;9.722;2023-07-02T00:02:27;18.30;99.90
3996;DHT22;2012;49.794;9.722;2023-07-02T00:04:54;18.20;99.90
3996;DHT22;2012;49.794;9.722;2023-07-02T00:07:21;18.20;99.90
3996;DHT22;2012;49.794;9.722;2023-07-02T00:09:48;18.20;99.90
3996;DHT22;2012;49.794;9.722;2023-07-02T00:12:15;18.30;99.90
3996;DHT22;2012;49.794;9.722;2023-07-02T00:14:42;18.20;99.90
3996;DHT22;2012;49.794;9.722;2023-07-02T00:17:10;18.30;99.90
3996;DHT22;2012;49.794;9.722;2023-07-02T00:19:39;18.30;99.90
3996;DHT22;2012;49.794;9.722;2023-07-02T00:22:10;18.20;99.90
3996;DHT22;2012;49.794;9.722;2023-07-02T00:24:37;18.20;99.90
3996;DHT22;2012;49.794;9.722;2023-07-02T00:27:04;18.20;99.90
3996;DHT22;2012;49.794;9.722;2023-07-02T00:29:31;18.30;99.90
3996;DHT22;2012;49.794;9.722;2023-07-02T00:31:58;18.30;99.90
3996;DHT22;2012;49.794;9.722;2023-07-02T00:34:25;18.40;99.90
3996;DHT22;2012;49.794;9.722;2023-07-02T00:36:53;18.40;99.90
3996;DHT22;2012;49.794;9.722;2023-07-02T00:39:20;18.30;99.90
3996;DHT22;2012;49.794;9.722;2023-07-02T00:41:47;18.20;99.90
3996;DHT22;2012;49.794;9.722;2023-07-02T00:44:15;18.10;99.90
3996;DHT22;2012;49.794;9.722;2023-07-02T00:46:42;18.20;99.90
3996;DHT22;2012;49.794;9.722;2023-07-02T00:49:09;18.10;99.90
3996;DHT22;2012;49.794;9.722;2023-07-02T00:51:37;18.20;99.90
3996;DHT22;2012;49.794;9.722;2023-07-02T00:54:04;18.10;99.90
3996;DHT22;2012;49.794;9.722;2023-07-02T00:56:33;18.10;99.90
3996;DHT22;2012;49.794;9.722;2023-07-02T00:58:59;18.10;99.90
3996;DHT22;2012;49.794;9.722;2023-07-02T01:01:28;18.10;99.90
3996;DHT22;2012;49.794;9.722;2023-07-02T01:04:00;18.00;99.90
3996;DHT22;2012;49.794;9.722;2023-07-02T01:06:29;17.90;99.90
3996;DHT22;2012;49.794;9.722;2023-07-02T01:09:01;18.00;99.90
3996;DHT22;2012;49.794;9.722;2023-07-02T01:11:50;18.10;99.90
3996;DHT22;2012;49.794;9.722;2023-07-02T01:14:32;18.00;99.90
3996;DHT22;2012;49.794;9.722;2023-07-02T01:17:03;18.00;99.90
3996;DHT22;2012;49.794;9.722;2023-07-02T01:22:27;18.00;99.90
3996;DHT22;2012;49.794;9.722;2023-07-02T01:24:54;18.00;99.90
3996;DHT22;2012;49.794;9.722;2023-07-02T01:27:21;18.00;99.90
3996;DHT22;2012;49.794;9.722;2023-07-02T01:29:52;17.90;99.90
3996;DHT22;2012;49.794;9.722;2023-07-02T01:32:19;17.90;99.90
3996;DHT22;2012;49.794;9.722;2023-07-02T01:34:49;17.70;99.90
3996;DHT22;2012;49.794;9.722;2023-07-02T01:37:19;17.80;99.90
3996;DHT22;2012;49.794;9.722;2023-07-02T01:39:46;17.80;99.90
3996;DHT22;2012;49.794;9.722;2023-07-02T01:42:15;17.80;99.90
3996;DHT22;2012;49.794;9.722;2023-07-02T01:44:49;17.70;99.90
3996;DHT22;2012;49.794;9.722;2023-07-02T01:47:18;17.70;99.90
3996;DHT22;2012;49.794;9.722;2023-07-02T01:49:46;17.60;99.90
3996;DHT22;2012;49.794;9.722;2023-07-02T01:52:13;17.60;99.90
3996;DHT22;2012;49.794;9.722;2023-07-02T01:54:40;17.60;99.90
3996;DHT22;2012;49.794;9.722;2023-07-02T01:57:08;17.50;99.90
3996;DHT22;2012;49.794;9.722;2023-07-02T01:59:35;17.50;99.90
3996;DHT22;2012;49.794;9.722;2023-07-02T02:02:03;17.60;99.90
3996;DHT22;2012;49.794;9.722;2023-07-02T02:04:30;17.50;99.90
3996;DHT22;2012;49.794;9.722;2023-07-02T02:06:57;17.60;99.90
3996;DHT22;2012;49.794;9.722;2023-07-02T02:09:23;17.60;99.90
3996;DHT22;2012;49.794;9.722;2023-07-02T02:11:51;17.60;99.90
3996;DHT22;2012;49.794;9.722;2023-07-02T02:14:19;17.50;99.90
3996;DHT22;2012;49.794;9.722;2023-07-02T02:16:46;17.50;99.90
3996;DHT22;2012;49.794;9.722;2023-07-02T02:19:13;17.40;99.90
3996;DHT22;2012;49.794;9.722;2023-07-02T02:21:43;17.30;99.90
3996;DHT22;2012;49.794;9.722;2023-07-02T02:24:10;17.40;99.90
3996;DHT22;2012;49.794;9.722;2023-07-02T02:26:37;17.40;99.90
3996;DHT22;2012;49.794;9.722;2023-07-02T02:29:04;17.30;99.90
3996;DHT22;2012;49.794;9.722;2023-07-02T02:31:31;17.40;99.90
3996;DHT22;2012;49.794;9.722;2023-07-02T02:34:00;17.30;99.90
3996;DHT22;2012;49.794;9.722;2023-07-02T02:36:27;17.30;99.90
3996;DHT22;2012;49.794;9.722;2023-07-02T02:38:55;17.30;99.90
3996;DHT22;2012;49.794;9.722;2023-07-02T02:41:23;17.30;99.90
3996;DHT22;2012;49.794;9.722;2023-07-02T02:43:52;17.10;99.90
3996;DHT22;2012;49.794;9.722;2023-07-02T02:46:20;17.20;99.90
3996;DHT22;2012;49.794;9.722;2023-07-02T02:48:49;17.10;99.90
3996;DHT22;2012;49.794;9.722;2023-07-02T02:51:16;17.10;99.90
3996;DHT22;2012;49.794;9.722;2023-07-02T02:53:43;17.10;99.90
3996;DHT22;2012;49.794;9.722;2023-07-02T02:56:10;16.90;99.90
3996;DHT22;2012;49.794;9.722;2023-07-02T02:58:37;16.90;99.90
3996;DHT22;2012;49.794;9.722;2023-07-02T03:01:04;16.80;99.90
3996;DHT22;2012;49.794;9.722;2023-07-02T03:03:38;16.80;99.90
3996;DHT22;2012;49.794;9.722;2023-07-02T03:06:06;16.60;99.90
3996;DHT22;2012;49.794;9.722;2023-07-02T03:08:32;16.60;99.90
3996;DHT22;2012;49.794;9.722;2023-07-02T03:10:59;16.60;99.90
3996;DHT22;2012;49.794;9.722;2023-07-02T03:13:26;16.40;99.90
3996;DHT22;2012;49.794;9.722;2023-07-02T03:15:53;16.30;99.90
3996;DHT22;2012;49.794;9.722;2023-07-02T03:18:19;16.30;99.90
3996;DHT22;2012;49.794;9.722;2023-07-02T03:20:46;16.30;99.90
3996;DHT22;2012;49.794;9.722;2023-07-02T03:23:14;16.30;99.90
3996;DHT22;2012;49.794;9.722;2023-07-02T03:25:41;16.20;99.90
3996;DHT22;2012;49.794;9.722;2023-07-02T03:28:08;16.10;99.90
3996;DHT22;2012;49.794;9.722;2023-07-02T03:30:34;16.00;99.90
3996;DHT22;2012;49.794;9.722;2023-07-02T03:33:01;16.00;99.90
3996;DHT22;2012;49.794;9.722;2023-07-02T03:35:28;15.90;99.90
3996;DHT22;2012;49.794;9.722;2023-07-02T03:37:55;16.00;99.90
3996;DHT22;2012;49.794;9.722;2023-07-02T03:40:24;16.00;99.90
3996;DHT22;2012;49.794;9.722;2023-07-02T03:42:51;15.90;99.90
3996;DHT22;2012;49.794;9.722;2023-07-02T03:45:17;16.00;99.90
3996;DHT22;2012;49.794;9.722;2023-07-02T03:47:44;16.00;99.90
3996;DHT22;2012;49.794;9.722;2023-07-02T03:50:11;16.10;99.90
3996;DHT22;2012;49.794;9.722;2023-07-02T03:52:38;16.20;99.90
3996;DHT22;2012;49.794;9.722;2023-07-02T03:55:05;16.10;99.90
3996;DHT22;2012;49.794;9.722;2023-07-02T03:57:32;16.00;99.90
3996;DHT22;2012;49.794;9.722;2023-07-02T03:59:59;16.00;99.90
3996;DHT22;2012;49.794;9.722;2023-07-02T04:02:26;16.00;99.90
3996;DHT22;2012;49.794;9.722;2023-07-02T04:04:53;16.00;99.90
3996;DHT22;2012;49.794;9.722;2023-07-02T04:07:20;16.10;99.90
3996;DHT22;2012;49.794;9.722;2023-07-02T04:09:47;16.10;99.90
3996;DHT22;2012;49.794;9.722;2023-07-02T04:12:14;16.10;99.90
3996;DHT22;2012;49.794;9.722;2023-07-02T04:14:40;16.10;99.90
3996;DHT22;2012;49.794;9.722;2023-07-02T04:17:07;16.20;99.90
3996;DHT22;2012;49.794;9.722;2023-07-02T04:19:34;16.20;99.90
3996;DHT22;2012;49.794;9.722;2023-07-02T04:22:01;16.20;99.90
3996;DHT22;2012;49.794;9.722;2023-07-02T04:24:29;16.20;99.90
3996;DHT22;2012;49.794;9.722;2023-07-02T04:26:56;16.10;99.90
3996;DHT22;2012;49.794;9.722;2023-07-02T04:29:44;16.20;99.90
3996;DHT22;2012;49.794;9.722;2023-07-02T04:32:11;16.20;99.90
3996;DHT22;2012;49.794;9.722;2023-07-02T04:34:38;16.20;99.90
3996;DHT22;2012;49.794;9.722;2023-07-02T04:37:05;16.30;99.90
3996;DHT22;2012;49.794;9.722;2023-07-02T04:39:32;16.40;99.90
3996;DHT22;2012;49.794;9.722;2023-07-02T04:42:01;16.30;99.90
3996;DHT22;2012;49.794;9.722;2023-07-02T04:44:27;16.40;99.90
3996;DHT22;2012;49.794;9.722;2023-07-02T04:46:58;16.40;99.90
3996;DHT22;2012;49.794;9.722;2023-07-02T04:49:25;16.40;99.90
3996;DHT22;2012;49.794;9.722;2023-07-02T04:51:53;16.40;99.90
3996;DHT22;2012;49.794;9.722;2023-07-02T04:54:21;16.50;99.90
3996;DHT22;2012;49.794;9.722;2023-07-02T04:56:48;16.50;99.90
3996;DHT22;2012;49.794;9.722;2023-07-02T04:59:15;16.50;99.90
3996;DHT22;2012;49.794;9.722;2023-07-02T05:01:42;16.50;99.90
3996;DHT22;2012;49.794;9.722;2023-07-02T05:04:11;16.50;99.90
3996;DHT22;2012;49.794;9.722;2023-07-02T05:06:38;16.50;99.90
3996;DHT22;2012;49.794;9.722;2023-07-02T05:09:05;16.50;99.90
3996;DHT22;2012;49.794;9.722;2023-07-02T05:11:32;16.60;99.90
3996;DHT22;2012;49.794;9.722;2023-07-02T05:13:58;16.60;99.90
3996;DHT22;2012;49.794;9.722;2023-07-02T05:16:25;16.60;99.90
3996;DHT22;2012;49.794;9.722;2023-07-02T05:18:52;16.50;99.90
3996;DHT22;2012;49.794;9.722;2023-07-02T05:21:19;16.50;99.90
3996;DHT22;2012;49.794;9.722;2023-07-02T05:23:47;16.60;99.90
3996;DHT22;2012;49.794;9.722;2023-07-02T05:26:15;16.60;99.90
3996;DHT22;2012;49.794;9.722;2023-07-02T05:28:42;16.60;99.90
3996;DHT22;2012;49.794;9.722;2023-07-02T05:31:09;16.70;99.90
3996;DHT22;2012;49.794;9.722;2023-07-02T05:33:35;16.70;99.90
3996;DHT22;2012;49.794;9.722;2023-07-02T05:36:02;16.60;99.90
3996;DHT22;2012;49.794;9.722;2023-07-02T05:38:29;16.70;99.90
3996;DHT22;2012;49.794;9.722;2023-07-02T05:40:56;16.60;99.90
3996;DHT22;2012;49.794;9.722;2023-07-02T05:43:23;16.60;99.90
3996;DHT22;2012;49.794;9.722;2023-07-02T05:45:53;16.70;99.90
3996;DHT22;2012;49.794;9.722;2023-07-02T05:48:20;16.70;99.90
3996;DHT22;2012;49.794;9.722;2023-07-02T05:50:46;16.70;99.90
3996;DHT22;2012;49.794;9.722;2023-07-02T05:53:14;16.70;99.90
3996;DHT22;2012;49.794;9.722;2023-07-02T05:55:42;16.90;99.90
3996;DHT22;2012;49.794;9.722;2023-07-02T05:58:10;16.90;99.90
3996;DHT22;2012;49.794;9.722;2023-07-02T06:00:36;16.90;99.90
3996;DHT22;2012;49.794;9.722;2023-07-02T06:03:03;16.90;99.90
3996;DHT22;2012;49.794;9.722;2023-07-02T06:05:30;16.90;99.90
3996;DHT22;2012;49.794;9.722;2023-07-02T06:07:57;16.90;99.90
3996;DHT22;2012;49.794;9.722;2023-07-02T06:10:24;17.00;99.90
3996;DHT22;2012;49.794;9.722;2023-07-02T06:12:51;16.90;99.90
3996;DHT22;2012;49.794;9.722;2023-07-02T06:15:18;17.10;99.90
3996;DHT22;2012;49.794;9.722;2023-07-02T06:17:45;17.20;99.90
3996;DHT22;2012;49.794;9.722;2023-07-02T06:20:12;17.10;99.90
3996;DHT22;2012;49.794;9.722;2023-07-02T06:22:39;17.10;99.90
3996;DHT22;2012;49.794;9.722;2023-07-02T06:25:07;17.20;99.90
3996;DHT22;2012;49.794;9.722;2023-07-02T06:27:34;17.20;99.90
3996;DHT22;2012;49.794;9.722;2023-07-02T06:30:01;17.30;99.90
3996;DHT22;2012;49.794;9.722;2023-07-02T06:32:28;17.40;99.90
3996;DHT22;2012;49.794;9.722;2023-07-02T06:34:54;17.40;99.90
3996;DHT22;2012;49.794;9.722;2023-07-02T06:37:21;17.40;99.90
3996;DHT22;2012;49.794;9.722;2023-07-02T06:39:48;17.40;99.90
3996;DHT22;2012;49.794;9.722;2023-07-02T06:42:15;17.50;99.90
3996;DHT22;2012;49.794;9.722;2023-07-02T06:44:43;17.60;99.90
3996;DHT22;2012;49.794;9.722;2023-07-02T06:47:10;17.70;99.90
3996;DHT22;2012;49.794;9.722;2023-07-02T06:49:37;17.70;99.90
3996;DHT22;2012;49.794;9.722;2023-07-02T06:52:04;17.70;99.90
3996;DHT22;2012;49.794;9.722;2023-07-02T06:54:30;17.60;99.90
3996;DHT22;2012;49.794;9.722;2023-07-02T06:56:57;17.70;99.90
3996;DHT22;2012;49.794;9.722;2023-07-02T06:59:24;17.80;99.90
3996;DHT22;2012;49.794;9.722;2023-07-02T07:01:51;17.90;99.90
3996;DHT22;2012;49.794;9.722;2023-07-02T07:04:18;17.80;99.90
3996;DHT22;2012;49.794;9.722;2023-07-02T07:06:45;17.80;99.90
3996;DHT22;2012;49.794;9.722;2023-07-02T07:09:13;17.80;99.90
3996;DHT22;2012;49.794;9.722;2023-07-02T07:11:39;17.90;99.90
3996;DHT22;2012;49.794;9.722;2023-07-02T07:14:07;18.10;99.90
3996;DHT22;2012;49.794;9.722;2023-07-02T07:16:35;18.10;99.90
3996;DHT22;2012;49.794;9.722;2023-07-02T07:19:02;18.20;99.90
3996;DHT22;2012;49.794;9.722;2023-07-02T07:21:29;18.50;99.90
3996;DHT22;2012;49.794;9.722;2023-07-02T07:23:55;18.30;99.90
3996;DHT22;2012;49.794;9.722;2023-07-02T07:26:22;18.30;99.90
3996;DHT22;2012;49.794;9.722;2023-07-02T07:28:49;18.40;99.90
3996;DHT22;2012;49.794;9.722;2023-07-02T07:31:16;18.50;99.90
3996;DHT22;2012;49.794;9.722;2023-07-02T07:33:43;18.70;99.90
3996;DHT22;2012;49.794;9.722;2023-07-02T07:36:10;18.70;99.90
3996;DHT22;2012;49.794;9.722;2023-07-02T07:38:37;18.70;99.90
3996;DHT22;2012;49.794;9.722;2023-07-02T07:41:04;18.90;99.90
3996;DHT22;2012;49.794;9.722;2023-07-02T07:43:31;19.00;99.90
3996;DHT22;2012;49.794;9.722;2023-07-02T07:45:58;18.90;99.90
3996;DHT22;2012;49.794;9.722;2023-07-02T07:48:26;18.90;99.90
3996;DHT22;2012;49.794;9.722;2023-07-02T07:50:52;18.90;99.90
3996;DHT22;2012;49.794;9.722;2023-07-02T07:53:19;18.90;99.90
3996;DHT22;2012;49.794;9.722;2023-07-02T07:55:46;18.90;99.90
3996;DHT22;2012;49.794;9.722;2023-07-02T07:58:13;19.00;99.90
3996;DHT22;2012;49.794;9.722;2023-07-02T08:00:40;19.10;99.90
3996;DHT22;2012;49.794;9.722;2023-07-02T08:03:07;19.00;99.90
3996;DHT22;2012;49.794;9.722;2023-07-02T08:05:34;18.90;99.90
3996;DHT22;2012;49.794;9.722;2023-07-02T08:08:01;19.00;99.90
3996;DHT22;2012;49.794;9.722;2023-07-02T08:10:28;18.90;99.90
3996;DHT22;2012;49.794;9.722;2023-07-02T08:12:54;18.80;99.90
3996;DHT22;2012;49.794;9.722;2023-07-02T08:15:22;18.90;99.90
3996;DHT22;2012;49.794;9.722;2023-07-02T08:17:49;18.90;99.90
3996;DHT22;2012;49.794;9.722;2023-07-02T08:20:18;18.80;99.90
3996;DHT22;2012;49.794;9.722;2023-07-02T08:22:45;18.80;99.90
3996;DHT22;2012;49.794;9.722;2023-07-02T08:25:12;18.90;99.90
3996;DHT22;2012;49.794;9.722;2023-07-02T08:27:39;19.00;99.90
3996;DHT22;2012;49.794;9.722;2023-07-02T08:30:06;19.10;99.90
3996;DHT22;2012;49.794;9.722;2023-07-02T08:32:33;19.40;99.90
3996;DHT22;2012;49.794;9.722;2023-07-02T08:35:01;19.40;99.90
3996;DHT22;2012;49.794;9.722;2023-07-02T08:37:28;19.50;99.90
3996;DHT22;2012;49.794;9.722;2023-07-02T08:39:55;19.70;99.90
3996;DHT22;2012;49.794;9.722;2023-07-02T08:42:22;19.90;99.90
3996;DHT22;2012;49.794;9.722;2023-07-02T08:44:54;20.00;99.90
3996;DHT22;2012;49.794;9.722;2023-07-02T08:47:22;20.10;99.90
3996;DHT22;2012;49.794;9.722;2023-07-02T08:49:49;20.10;99.90
3996;DHT22;2012;49.794;9.722;2023-07-02T08:52:16;20.10;99.90
3996;DHT22;2012;49.794;9.722;2023-07-02T08:54:43;20.30;99.90
3996;DHT22;2012;49.794;9.722;2023-07-02T08:57:10;20.40;99.90
3996;DHT22;2012;49.794;9.722;2023-07-02T08:59:37;20.50;99.90
3996;DHT22;2012;49.794;9.722;2023-07-02T09:02:04;20.50;99.90
3996;DHT22;2012;49.794;9.722;2023-07-02T09:04:31;20.40;99.90
3996;DHT22;2012;49.794;9.722;2023-07-02T09:07:04;20.40;99.90
3996;DHT22;2012;49.794;9.722;2023-07-02T09:09:32;20.20;99.90
3996;DHT22;2012;49.794;9.722;2023-07-02T09:12:00;20.30;99.90
3996;DHT22;2012;49.794;9.722;2023-07-02T09:14:31;20.30;99.90
3996;DHT22;2012;49.794;9.722;2023-07-02T09:17:08;20.30;99.90
3996;DHT22;2012;49.794;9.722;2023-07-02T09:19:47;20.30;99.90
3996;DHT22;2012;49.794;9.722;2023-07-02T09:22:15;20.30;99.90
3996;DHT22;2012;49.794;9.722;2023-07-02T09:24:51;20.40;99.90
3996;DHT22;2012;49.794;9.722;2023-07-02T09:27:19;20.70;99.90
3996;DHT22;2012;49.794;9.722;2023-07-02T09:29:51;20.90;99.90
3996;DHT22;2012;49.794;9.722;2023-07-02T09:32:25;21.00;99.90
3996;DHT22;2012;49.794;9.722;2023-07-02T09:34:54;21.10;99.90
3996;DHT22;2012;49.794;9.722;2023-07-02T09:37:22;21.10;99.90
3996;DHT22;2012;49.794;9.722;2023-07-02T09:39:51;20.90;99.90
3996;DHT22;2012;49.794;9.722;2023-07-02T09:42:21;20.90;99.90
3996;DHT22;2012;49.794;9.722;2023-07-02T09:44:52;21.00;99.90
3996;DHT22;2012;49.794;9.722;2023-07-02T09:47:21;21.10;99.90
3996;DHT22;2012;49.794;9.722;2023-07-02T09:50:02;21.20;99.90
3996;DHT22;2012;49.794;9.722;2023-07-02T09:52:30;21.30;99.90
3996;DHT22;2012;49.794;9.722;2023-07-02T09:54:57;21.20;99.90
3996;DHT22;2012;49.794;9.722;2023-07-02T09:57:23;21.10;99.90
3996;DHT22;2012;49.794;9.722;2023-07-02T09:59:50;20.90;99.30
3996;DHT22;2012;49.794;9.722;2023-07-02T10:02:17;21.00;99.90
3996;DHT22;2012;49.794;9.722;2023-07-02T10:04:46;20.90;99.20
3996;DHT22;2012;49.794;9.722;2023-07-02T10:07:26;21.00;99.40
3996;DHT22;2012;49.794;9.722;2023-07-02T10:09:53;21.10;99.60
3996;DHT22;2012;49.794;9.722;2023-07-02T10:12:26;21.20;99.90
3996;DHT22;2012;49.794;9.722;2023-07-02T10:14:55;21.20;99.30
3996;DHT22;2012;49.794;9.722;2023-07-02T10:17:54;21.10;98.00
3996;DHT22;2012;49.794;9.722;2023-07-02T10:20:31;21.50;99.00
3996;DHT22;2012;49.794;9.722;2023-07-02T10:23:00;21.60;96.60
3996;DHT22;2012;49.794;9.722;2023-07-02T10:27:56;21.40;95.70
3996;DHT22;2012;49.794;9.722;2023-07-02T10:30:33;21.20;94.90
3996;DHT22;2012;49.794;9.722;2023-07-02T10:33:14;21.10;95.40
3996;DHT22;2012;49.794;9.722;2023-07-02T10:35:43;21.00;95.70
3996;DHT22;2012;49.794;9.722;2023-07-02T10:40:56;21.20;96.90
3996;DHT22;2012;49.794;9.722;2023-07-02T10:43:29;21.30;96.10
3996;DHT22;2012;49.794;9.722;2023-07-02T10:46:00;21.10;96.20
3996;DHT22;2012;49.794;9.722;2023-07-02T10:48:29;21.10;95.90
3996;DHT22;2012;49.794;9.722;2023-07-02T10:50:56;21.20;96.40
3996;DHT22;2012;49.794;9.722;2023-07-02T10:53:24;21.30;95.90
3996;DHT22;2012;49.794;9.722;2023-07-02T10:55:55;21.50;94.60
3996;DHT22;2012;49.794;9.722;2023-07-02T10:58:24;21.50;94.80
3996;DHT22;2012;49.794;9.722;2023-07-02T11:00:51;21.70;94.80
3996;DHT22;2012;49.794;9.722;2023-07-02T11:03:22;21.50;94.20
3996;DHT22;2012;49.794;9.722;2023-07-02T11:05:51;21.60;95.00
3996;DHT22;2012;49.794;9.722;2023-07-02T11:08:19;21.60;93.40
3996;DHT22;2012;49.794;9.722;2023-07-02T11:10:48;21.60;93.20
3996;DHT22;2012;49.794;9.722;2023-07-02T11:13:19;21.70;94.60
3996;DHT22;2012;49.794;9.722;2023-07-02T11:15:46;21.80;94.00
3996;DHT22;2012;49.794;9.722;2023-07-02T11:18:16;21.80;94.60
3996;DHT22;2012;49.794;9.722;2023-07-02T11:20:45;21.80;93.20
3996;DHT22;2012;49.794;9.722;2023-07-02T11:23:21;21.80;92.00
3996;DHT22;2012;49.794;9.722;2023-07-02T11:26:02;21.70;91.20
3996;DHT22;2012;49.794;9.722;2023-07-02T11:28:31;21.80;91.50
3996;DHT22;2012;49.794;9.722;2023-07-02T11:30:58;21.80;91.50
3996;DHT22;2012;49.794;9.722;2023-07-02T11:33:39;21.70;91.80
3996;DHT22;2012;49.794;9.722;2023-07-02T11:36:07;21.60;92.20
3996;DHT22;2012;49.794;9.722;2023-07-02T11:38:36;21.80;91.80
3996;DHT22;2012;49.794;9.722;2023-07-02T11:41:04;22.20;92.10
3996;DHT22;2012;49.794;9.722;2023-07-02T11:43:31;22.70;90.90
3996;DHT22;2012;49.794;9.722;2023-07-02T11:45:58;22.60;86.10
3996;DHT22;2012;49.794;9.722;2023-07-02T11:48:25;22.50;89.00
3996;DHT22;2012;49.794;9.722;2023-07-02T11:50:52;22.30;85.90
3996;DHT22;2012;49.794;9.722;2023-07-02T11:53:19;22.50;88.20
3996;DHT22;2012;49.794;9.722;2023-07-02T11:55:45;22.40;86.50
3996;DHT22;2012;49.794;9.722;2023-07-02T11:58:13;22.80;86.70
3996;DHT22;2012;49.794;9.722;2023-07-02T12:00:40;23.00;85.40
3996;DHT22;2012;49.794;9.722;2023-07-02T12:03:07;22.90;85.40
3996;DHT22;2012;49.794;9.722;2023-07-02T12:05:33;22.90;86.20
3996;DHT22;2012;49.794;9.722;2023-07-02T12:08:02;22.80;83.90
3996;DHT22;2012;49.794;9.722;2023-07-02T12:10:29;22.70;83.60
3996;DHT22;2012;49.794;9.722;2023-07-02T12:12:56;22.50;81.60
3996;DHT22;2012;49.794;9.722;2023-07-02T12:15:23;22.40;84.30
3996;DHT22;2012;49.794;9.722;2023-07-02T12:17:50;22.50;84.20
3996;DHT22;2012;49.794;9.722;2023-07-02T12:20:17;22.40;81.90
3996;DHT22;2012;49.794;9.722;2023-07-02T12:22:44;22.50;80.10
3996;DHT22;2012;49.794;9.722;2023-07-02T12:25:39;22.60;82.50
3996;DHT22;2012;49.794;9.722;2023-07-02T12:28:06;22.60;82.20
3996;DHT22;2012;49.794;9.722;2023-07-02T12:30:33;22.50;81.30
3996;DHT22;2012;49.794;9.722;2023-07-02T12:33:00;22.50;81.60
3996;DHT22;2012;49.794;9.722;2023-07-02T12:35:27;22.90;81.80
3996;DHT22;2012;49.794;9.722;2023-07-02T12:37:54;23.00;78.30
3996;DHT22;2012;49.794;9.722;2023-07-02T12:40:21;23.00;79.00
3996;DHT22;2012;49.794;9.722;2023-07-02T12:42:48;23.20;80.20
3996;DHT22;2012;49.794;9.722;2023-07-02T12:45:16;23.10;77.00
3996;DHT22;2012;49.794;9.722;2023-07-02T12:47:47;22.90;76.20
3996;DHT22;2012;49.794;9.722;2023-07-02T12:50:14;22.90;78.00
3996;DHT22;2012;49.794;9.722;2023-07-02T12:52:41;22.90;76.80
3996;DHT22;2012;49.794;9.722;2023-07-02T12:55:08;22.80;77.20
3996;DHT22;2012;49.794;9.722;2023-07-02T12:57:36;22.80;78.50
3996;DHT22;2012;49.794;9.722;2023-07-02T13:00:03;22.90;78.40
3996;DHT22;2012;49.794;9.722;2023-07-02T13:02:32;22.90;78.50
3996;DHT22;2012;49.794;9.722;2023-07-02T13:05:12;22.80;78.20
3996;DHT22;2012;49.794;9.722;2023-07-02T13:07:40;22.90;78.70
3996;DHT22;2012;49.794;9.722;2023-07-02T13:10:07;22.80;77.50
3996;DHT22;2012;49.794;9.722;2023-07-02T13:12:34;22.70;78.70
3996;DHT22;2012;49.794;9.722;2023-07-02T13:15:01;22.80;78.20
3996;DHT22;2012;49.794;9.722;2023-07-02T13:17:28;22.80;77.30
3996;DHT22;2012;49.794;9.722;2023-07-02T13:19:55;22.80;75.90
3996;DHT22;2012;49.794;9.722;2023-07-02T13:22:22;22.90;76.40
3996;DHT22;2012;49.794;9.722;2023-07-02T13:24:49;23.00;77.00
3996;DHT22;2012;49.794;9.722;2023-07-02T13:27:17;23.00;76.60
3996;DHT22;2012;49.794;9.722;2023-07-02T13:29:45;22.90;77.00
3996;DHT22;2012;49.794;9.722;2023-07-02T13:32:12;23.20;76.10
3996;DHT22;2012;49.794;9.722;2023-07-02T13:34:39;23.10;76.00
3996;DHT22;2012;49.794;9.722;2023-07-02T13:37:05;23.10;77.80
3996;DHT22;2012;49.794;9.722;2023-07-02T13:39:32;23.10;77.00
3996;DHT22;2012;49.794;9.722;2023-07-02T13:41:59;23.20;77.10
3996;DHT22;2012;49.794;9.722;2023-07-02T13:44:26;23.60;77.40
3996;DHT22;2012;49.794;9.722;2023-07-02T13:46:53;23.70;74.00
3996;DHT22;2012;49.794;9.722;2023-07-02T13:49:20;24.00;74.10
3996;DHT22;2012;49.794;9.722;2023-07-02T13:51:48;24.00;70.70
3996;DHT22;2012;49.794;9.722;2023-07-02T13:54:16;24.00;74.10
3996;DHT22;2012;49.794;9.722;2023-07-02T13:56:46;23.80;72.20
3996;DHT22;2012;49.794;9.722;2023-07-02T13:59:16;23.60;72.10
3996;DHT22;2012;49.794;9.722;2023-07-02T14:01:44;24.00;73.60
3996;DHT22;2012;49.794;9.722;2023-07-02T14:04:12;23.90;72.80
3996;DHT22;2012;49.794;9.722;2023-07-02T14:06:39;23.80;73.70
3996;DHT22;2012;49.794;9.722;2023-07-02T14:09:07;23.90;72.30
3996;DHT22;2012;49.794;9.722;2023-07-02T14:11:37;23.70;71.50
3996;DHT22;2012;49.794;9.722;2023-07-02T14:14:04;23.70;72.80
3996;DHT22;2012;49.794;9.722;2023-07-02T14:16:32;24.10;72.20
3996;DHT22;2012;49.794;9.722;2023-07-02T14:18:59;24.20;72.10
3996;DHT22;2012;49.794;9.722;2023-07-02T14:21:25;24.50;71.50
3996;DHT22;2012;49.794;9.722;2023-07-02T14:23:52;24.60;72.10
3996;DHT22;2012;49.794;9.722;2023-07-02T14:26:19;24.70;69.20
3996;DHT22;2012;49.794;9.722;2023-07-02T14:28:46;24.60;67.40
3996;DHT22;2012;49.794;9.722;2023-07-02T14:31:13;24.70;66.90
3996;DHT22;2012;49.794;9.722;2023-07-02T14:33:39;24.70;65.60
3996;DHT22;2012;49.794;9.722;2023-07-02T14:36:07;24.80;66.00
3996;DHT22;2012;49.794;9.722;2023-07-02T14:38:34;24.80;66.80
3996;DHT22;2012;49.794;9.722;2023-07-02T14:41:01;24.90;66.90
3996;DHT22;2012;49.794;9.722;2023-07-02T14:43:30;25.00;65.40
3996;DHT22;2012;49.794;9.722;2023-07-02T14:46:01;24.90;65.00
3996;DHT22;2012;49.794;9.722;2023-07-02T14:48:28;24.90;65.90
3996;DHT22;2012;49.794;9.722;2023-07-02T14:50:58;25.10;65.30
3996;DHT22;2012;49.794;9.722;2023-07-02T14:53:26;25.20;64.90
3996;DHT22;2012;49.794;9.722;2023-07-02T14:55:56;25.20;64.70
3996;DHT22;2012;49.794;9.722;2023-07-02T14:58:24;25.10;63.80
3996;DHT22;2012;49.794;9.722;2023-07-02T15:00:53;25.30;63.80
3996;DHT22;2012;49.794;9.722;2023-07-02T15:03:22;25.20;64.10
3996;DHT22;2012;49.794;9.722;2023-07-02T15:05:50;25.20;64.50
3996;DHT22;2012;49.794;9.722;2023-07-02T15:08:20;25.00;63.20
3996;DHT22;2012;49.794;9.722;2023-07-02T15:10:49;25.10;65.10
3996;DHT22;2012;49.794;9.722;2023-07-02T15:13:17;25.20;64.20
3996;DHT22;2012;49.794;9.722;2023-07-02T15:15:45;25.00;62.60
3996;DHT22;2012;49.794;9.722;2023-07-02T15:18:13;25.10;64.40
3996;DHT22;2012;49.794;9.722;2023-07-02T15:20:43;25.30;64.10
3996;DHT22;2012;49.794;9.722;2023-07-02T15:23:11;25.40;63.70
3996;DHT22;2012;49.794;9.722;2023-07-02T15:25:39;25.40;63.80
3996;DHT22;2012;49.794;9.722;2023-07-02T15:28:06;25.50;63.50
3996;DHT22;2012;49.794;9.722;2023-07-02T15:30:36;25.40;62.70
3996;DHT22;2012;49.794;9.722;2023-07-02T15:33:03;25.00;63.20
3996;DHT22;2012;49.794;9.722;2023-07-02T15:35:31;25.00;63.30
3996;DHT22;2012;49.794;9.722;2023-07-02T15:37:58;24.90;63.30
3996;DHT22;2012;49.794;9.722;2023-07-02T15:40:25;24.80;62.10
3996;DHT22;2012;49.794;9.722;2023-07-02T15:42:53;24.80;63.00
3996;DHT22;2012;49.794;9.722;2023-07-02T15:45:19;24.80;63.30
3996;DHT22;2012;49.794;9.722;2023-07-02T15:47:46;24.90;64.80
3996;DHT22;2012;49.794;9.722;2023-07-02T15:50:13;24.80;64.20
3996;DHT22;2012;49.794;9.722;2023-07-02T15:52:40;24.60;64.40
3996;DHT22;2012;49.794;9.722;2023-07-02T15:55:07;24.60;63.90
3996;DHT22;2012;49.794;9.722;2023-07-02T15:57:34;24.60;63.70
3996;DHT22;2012;49.794;9.722;2023-07-02T16:00:01;24.80;64.20
3996;DHT22;2012;49.794;9.722;2023-07-02T16:02:39;25.00;66.60
3996;DHT22;2012;49.794;9.722;2023-07-02T16:05:06;24.90;65.50
3996;DHT22;2012;49.794;9.722;2023-07-02T16:07:34;24.70;62.80
3996;DHT22;2012;49.794;9.722;2023-07-02T16:10:05;24.40;63.70
3996;DHT22;2012;49.794;9.722;2023-07-02T16:12:32;24.40;64.20
3996;DHT22;2012;49.794;9.722;2023-07-02T16:14:58;24.60;65.00